Time;durP1;ratioP1;P1;durP2;ratioP2;P2;SDS_P1;SDS_P2;PMS_P1;PMS_P2;Temp;Humidity;BMP_temperature;BMP_pressure;BME280_temperature;BME280_humidity;BME280_pressure;Samples;Min_cycle;Max_cycle;Signal;HPM_P1;HPM_P2
2021/04/29 00:01:24;;;;;;;4.30;3.80;;;13.40;99.90;;;;;;5039056;28;20379;-86
2021/04/29 00:03:50;;;;;;;6.28;3.65;;;13.40;99.90;;;;;;5039538;28;20197;-85
2021/04/29 00:06:17;;;;;;;6.28;3.60;;;13.40;99.90;;;;;;5041139;28;20177;-86
2021/04/29 00:08:43;;;;;;;5.75;3.38;;;13.40;99.90;;;;;;5021078;28;20243;-85
2021/04/29 00:11:11;;;;;;;4.65;4.03;;;13.40;99.90;;;;;;5015645;28;20250;-87
2021/04/29 00:13:37;;;;;;;4.60;3.10;;;13.40;99.90;;;;;;5016998;28;20663;-86
2021/04/29 00:16:05;;;;;;;3.88;3.00;;;13.30;99.90;;;;;;5016566;28;20204;-86
2021/04/29 00:18:32;;;;;;;6.72;3.92;;;13.20;99.90;;;;;;5017459;28;20185;-86
2021/04/29 00:20:59;;;;;;;3.92;3.20;;;13.30;99.90;;;;;;5016868;28;20201;-86
2021/04/29 00:23:26;;;;;;;4.55;3.92;;;13.20;99.90;;;;;;5017889;28;20236;-86
2021/04/29 00:25:53;;;;;;;4.15;3.60;;;13.20;99.90;;;;;;5018094;28;20194;-86
2021/04/29 00:28:19;;;;;;;5.97;3.42;;;13.20;99.90;;;;;;5018187;28;20193;-86
2021/04/29 00:30:45;;;;;;;4.25;3.85;;;13.10;99.90;;;;;;5019350;28;20268;-86
2021/04/29 00:33:11;;;;;;;5.28;3.40;;;13.10;99.90;;;;;;5020500;28;20194;-87
2021/04/29 00:35:39;;;;;;;4.50;3.25;;;13.00;99.90;;;;;;5028962;28;20210;-86
2021/04/29 00:38:05;;;;;;;4.43;3.42;;;13.00;99.90;;;;;;5028986;28;20732;-86
2021/04/29 00:40:32;;;;;;;4.95;3.20;;;12.90;99.90;;;;;;5022218;28;20220;-85
2021/04/29 00:42:58;;;;;;;5.45;3.22;;;12.90;99.90;;;;;;5023298;28;20228;-86
2021/04/29 00:45:24;;;;;;;4.65;3.30;;;12.80;99.90;;;;;;5017347;28;20224;-86
2021/04/29 00:47:51;;;;;;;4.35;2.97;;;12.70;99.90;;;;;;5020485;28;20190;-86
2021/04/29 00:50:20;;;;;;;4.32;3.45;;;12.70;99.90;;;;;;5026877;28;20244;-86
2021/04/29 00:52:47;;;;;;;7.10;3.88;;;12.60;99.90;;;;;;5027354;28;20197;-87
2021/04/29 00:55:14;;;;;;;5.82;3.80;;;12.60;99.90;;;;;;5026643;28;20189;-86
2021/04/29 00:57:40;;;;;;;4.57;3.30;;;12.50;99.90;;;;;;5026778;28;20197;-86
2021/04/29 01:00:08;;;;;;;6.57;3.75;;;12.40;99.90;;;;;;5027125;28;20198;-87
2021/04/29 01:02:38;;;;;;;8.55;3.30;;;12.40;99.90;;;;;;5027392;28;20201;-86
2021/04/29 01:05:09;;;;;;;7.40;3.63;;;12.40;99.90;;;;;;5027015;28;20572;-86
2021/04/29 01:07:41;;;;;;;4.25;3.20;;;12.30;99.90;;;;;;5016762;28;20197;-86
2021/04/29 01:10:12;;;;;;;5.47;3.13;;;12.20;99.90;;;;;;5014758;28;20224;-86
2021/04/29 01:12:43;;;;;;;5.18;4.20;;;12.30;99.90;;;;;;5015163;28;20645;-86
2021/04/29 01:15:11;;;;;;;6.03;2.90;;;12.20;99.90;;;;;;5015781;28;20273;-86
2021/04/29 01:17:41;;;;;;;4.22;3.25;;;12.30;99.90;;;;;;5016006;28;20208;-88
2021/04/29 01:20:10;;;;;;;4.70;3.60;;;12.30;99.90;;;;;;5016705;28;20225;-86
2021/04/29 01:22:47;;;;;;;4.40;3.58;;;12.30;99.90;;;;;;5015528;28;20193;-85
2021/04/29 01:25:16;;;;;;;5.28;3.75;;;12.30;99.90;;;;;;5015418;28;20201;-86
2021/04/29 01:27:43;;;;;;;4.60;3.55;;;12.30;99.90;;;;;;5016047;28;20189;-86
2021/04/29 01:30:12;;;;;;;5.55;3.05;;;12.30;99.90;;;;;;5015756;28;20193;-86
2021/04/29 01:32:41;;;;;;;4.60;3.40;;;12.30;99.90;;;;;;5015891;28;20189;-86
2021/04/29 01:35:10;;;;;;;6.32;3.60;;;12.30;99.90;;;;;;5015506;28;20205;-85
2021/04/29 01:37:37;;;;;;;8.52;3.33;;;12.30;99.90;;;;;;5016586;28;20212;-86
2021/04/29 01:40:06;;;;;;;4.15;3.35;;;12.30;99.90;;;;;;5015379;28;20322;-86
2021/04/29 01:42:35;;;;;;;4.40;3.60;;;12.30;99.90;;;;;;5017967;28;20221;-86
2021/04/29 01:45:04;;;;;;;5.05;3.97;;;12.30;99.90;;;;;;5019115;28;20634;-86
2021/04/29 01:47:32;;;;;;;4.10;3.15;;;12.20;99.90;;;;;;5028062;28;20263;-86
2021/04/29 01:49:59;;;;;;;5.20;3.13;;;12.20;99.90;;;;;;5027434;28;20185;-87
2021/04/29 01:52:25;;;;;;;5.55;3.72;;;12.30;99.90;;;;;;5015758;28;20213;-86
2021/04/29 01:54:52;;;;;;;5.25;3.38;;;12.20;99.90;;;;;;5014637;28;20194;-86
2021/04/29 01:57:18;;;;;;;5.80;3.80;;;12.10;99.90;;;;;;5014987;28;20193;-87
2021/04/29 01:59:45;;;;;;;4.57;3.42;;;12.10;99.90;;;;;;5015028;28;20273;-86
2021/04/29 02:02:12;;;;;;;4.30;3.47;;;12.10;99.90;;;;;;5014276;28;20192;-86
2021/04/29 02:04:38;;;;;;;4.80;3.10;;;12.20;99.90;;;;;;5014397;28;20201;-87
2021/04/29 02:07:04;;;;;;;6.50;3.42;;;12.20;99.90;;;;;;5015309;28;20194;-86
2021/04/29 02:09:31;;;;;;;7.30;3.65;;;12.20;99.90;;;;;;5001715;28;20194;-87
2021/04/29 02:12:00;;;;;;;6.38;4.18;;;12.20;99.90;;;;;;5013237;28;20225;-87
2021/04/29 02:14:32;;;;;;;6.25;3.92;;;12.20;99.90;;;;;;5013982;28;20197;-87
2021/04/29 02:17:02;;;;;;;6.63;4.82;;;12.20;99.90;;;;;;5014395;28;20186;-87
2021/04/29 02:19:30;;;;;;;5.85;3.97;;;12.20;99.90;;;;;;5014538;28;20201;-87
2021/04/29 02:21:58;;;;;;;6.55;3.85;;;12.20;99.90;;;;;;5014425;28;20204;-86
2021/04/29 02:24:25;;;;;;;8.75;4.75;;;12.20;99.90;;;;;;5027363;28;20268;-87
2021/04/29 02:26:51;;;;;;;5.95;4.75;;;12.20;99.90;;;;;;5012349;28;20236;-87
2021/04/29 02:29:19;;;;;;;7.53;4.47;;;12.20;99.90;;;;;;5014760;28;20197;-87
2021/04/29 02:31:46;;;;;;;7.30;4.95;;;12.20;99.90;;;;;;5015189;28;20564;-87
2021/04/29 02:34:12;;;;;;;5.70;4.55;;;12.20;99.90;;;;;;5014164;28;20186;-87
2021/04/29 02:36:41;;;;;;;5.35;4.18;;;12.20;99.90;;;;;;5015285;28;20584;-87
2021/04/29 02:39:08;;;;;;;5.63;4.47;;;12.10;99.90;;;;;;5014748;28;20649;-87
2021/04/29 02:41:35;;;;;;;6.97;5.30;;;12.10;99.90;;;;;;5015954;28;20760;-87
2021/04/29 02:44:02;;;;;;;5.13;4.22;;;12.10;99.90;;;;;;5029550;28;20200;-87
2021/04/29 02:46:28;;;;;;;8.25;7.10;;;12.10;99.90;;;;;;5037064;28;20196;-87
2021/04/29 02:48:55;;;;;;;9.70;6.05;;;12.10;99.90;;;;;;5036397;28;20178;-87
2021/04/29 02:51:22;;;;;;;8.38;6.85;;;12.20;99.90;;;;;;5035660;28;20213;-87
2021/04/29 02:53:49;;;;;;;9.07;8.18;;;12.20;99.90;;;;;;5033976;28;20241;-86
2021/04/29 02:56:16;;;;;;;10.45;6.75;;;12.20;99.90;;;;;;5035752;28;20190;-87
2021/04/29 02:58:47;;;;;;;10.05;7.50;;;12.20;99.90;;;;;;5035541;28;20173;-86
2021/04/29 03:01:16;;;;;;;15.50;8.35;;;12.20;99.90;;;;;;5036229;28;20186;-86
2021/04/29 03:03:43;;;;;;;15.85;7.95;;;12.30;99.90;;;;;;5036734;28;20193;-86
2021/04/29 03:06:10;;;;;;;11.30;7.90;;;12.20;99.90;;;;;;5036497;28;20223;-87
2021/04/29 03:08:36;;;;;;;8.10;6.90;;;12.20;99.90;;;;;;5035983;28;20245;-87
2021/04/29 03:11:04;;;;;;;14.25;8.43;;;12.20;99.90;;;;;;5036460;28;20216;-86
2021/04/29 03:13:31;;;;;;;11.15;9.15;;;12.20;99.90;;;;;;5035068;28;20178;-86
2021/04/29 03:15:57;;;;;;;14.43;8.88;;;12.20;99.90;;;;;;5039962;28;20206;-86
2021/04/29 03:18:23;;;;;;;13.35;9.75;;;12.20;99.90;;;;;;5039490;28;20260;-86
2021/04/29 03:20:49;;;;;;;11.48;8.55;;;12.20;99.90;;;;;;5022124;28;20260;-86
2021/04/29 03:23:16;;;;;;;10.05;8.80;;;12.10;99.90;;;;;;5018058;28;20189;-86
2021/04/29 03:25:44;;;;;;;17.08;8.80;;;12.10;99.90;;;;;;5017955;28;20193;-85
2021/04/29 03:28:11;;;;;;;13.10;8.63;;;12.10;99.90;;;;;;5018498;28;20193;-86
2021/04/29 03:30:38;;;;;;;20.05;9.10;;;12.10;99.90;;;;;;5017599;28;20229;-86
2021/04/29 03:33:05;;;;;;;11.27;7.85;;;12.10;99.90;;;;;;5018213;28;20190;-86
2021/04/29 03:35:31;;;;;;;21.55;10.25;;;12.10;99.90;;;;;;5017006;28;20225;-86
2021/04/29 03:37:58;;;;;;;10.13;8.63;;;12.00;99.90;;;;;;5018469;28;20201;-86
2021/04/29 03:40:24;;;;;;;13.32;10.35;;;12.00;99.90;;;;;;5016918;28;20190;-86
2021/04/29 03:42:50;;;;;;;11.65;9.98;;;12.00;99.90;;;;;;5017580;28;20316;-86
2021/04/29 03:45:18;;;;;;;12.90;9.35;;;12.00;99.90;;;;;;5017220;28;20189;-85
2021/04/29 03:47:44;;;;;;;14.93;10.93;;;11.90;99.90;;;;;;5017293;28;20194;-86
2021/04/29 03:50:11;;;;;;;11.23;9.98;;;11.90;99.90;;;;;;5016164;28;20197;-86
2021/04/29 03:52:37;;;;;;;11.30;9.30;;;11.90;99.90;;;;;;5017196;28;20217;-85
2021/04/29 03:55:04;;;;;;;10.77;9.30;;;11.90;99.90;;;;;;5016134;28;20193;-85
2021/04/29 03:57:30;;;;;;;13.35;9.90;;;11.80;99.90;;;;;;5016374;28;20185;-85
2021/04/29 03:59:57;;;;;;;10.40;9.38;;;11.80;99.90;;;;;;5015995;28;20197;-86
2021/04/29 04:02:24;;;;;;;11.25;9.50;;;11.80;99.90;;;;;;5017422;28;20244;-85
2021/04/29 04:04:50;;;;;;;13.13;10.70;;;11.80;99.90;;;;;;5017860;28;20186;-85
2021/04/29 04:07:17;;;;;;;13.13;11.52;;;11.70;99.90;;;;;;5017852;28;20208;-86
2021/04/29 04:09:43;;;;;;;15.50;9.90;;;11.70;99.90;;;;;;5015762;28;20240;-85
2021/04/29 04:12:10;;;;;;;12.80;10.40;;;11.70;99.90;;;;;;5015953;28;20627;-85
2021/04/29 04:14:37;;;;;;;12.48;9.68;;;11.60;99.90;;;;;;5016614;28;20190;-85
2021/04/29 04:17:03;;;;;;;10.82;9.20;;;11.60;99.90;;;;;;5016949;28;20193;-85
2021/04/29 04:19:30;;;;;;;15.60;10.80;;;11.60;99.90;;;;;;5020384;28;20189;-86
2021/04/29 04:21:57;;;;;;;11.07;9.70;;;11.60;99.90;;;;;;5024371;28;20193;-85
2021/04/29 04:24:23;;;;;;;20.08;11.88;;;11.60;99.90;;;;;;5021886;28;20186;-85
2021/04/29 04:26:50;;;;;;;12.98;10.85;;;11.60;99.90;;;;;;5026655;28;20193;-85
2021/04/29 04:29:17;;;;;;;16.63;11.88;;;11.60;99.90;;;;;;5017332;28;20185;-85
2021/04/29 04:31:43;;;;;;;13.13;11.15;;;11.60;99.90;;;;;;5017434;28;20213;-86
2021/04/29 04:34:09;;;;;;;15.32;11.25;;;11.60;99.90;;;;;;5016268;28;20205;-85
2021/04/29 04:36:37;;;;;;;15.60;11.57;;;11.60;99.90;;;;;;5023787;28;20194;-85
2021/04/29 04:39:03;;;;;;;17.35;11.10;;;11.50;99.90;;;;;;5028884;28;20229;-86
2021/04/29 04:41:30;;;;;;;13.15;11.57;;;11.50;99.90;;;;;;5030650;28;20257;-85
2021/04/29 04:43:56;;;;;;;12.90;10.80;;;11.50;99.90;;;;;;5009518;28;20194;-86
2021/04/29 04:46:24;;;;;;;15.27;11.77;;;11.40;99.90;;;;;;5015331;28;20194;-85
2021/04/29 04:48:50;;;;;;;15.25;11.18;;;11.40;99.90;;;;;;5020600;28;20561;-86
2021/04/29 04:51:17;;;;;;;14.73;12.23;;;11.40;99.90;;;;;;5014475;28;20220;-86
2021/04/29 04:53:44;;;;;;;16.30;12.07;;;11.40;99.90;;;;;;5017699;28;20197;-86
2021/04/29 04:56:10;;;;;;;14.27;11.85;;;11.40;99.90;;;;;;5016301;28;20673;-86
2021/04/29 04:58:37;;;;;;;20.73;12.50;;;11.30;99.90;;;;;;5016736;28;20235;-87
2021/04/29 05:01:03;;;;;;;13.82;12.20;;;11.30;99.90;;;;;;5015667;28;20236;-87
2021/04/29 05:03:30;;;;;;;16.00;11.80;;;11.30;99.90;;;;;;5016288;28;20189;-87
2021/04/29 05:05:56;;;;;;;26.63;14.55;;;11.30;99.90;;;;;;5016930;28;20194;-87
2021/04/29 05:08:23;;;;;;;19.00;13.32;;;11.20;99.90;;;;;;5002547;28;20202;-88
2021/04/29 05:10:50;;;;;;;20.83;14.10;;;11.20;99.90;;;;;;5016149;28;20209;-88
2021/04/29 05:13:16;;;;;;;18.98;15.55;;;11.20;99.90;;;;;;5026237;28;20194;-88
2021/04/29 05:15:43;;;;;;;27.20;16.63;;;11.10;99.90;;;;;;5024909;28;20193;-88
2021/04/29 05:18:09;;;;;;;25.60;15.43;;;11.10;99.90;;;;;;5030101;28;20189;-87
2021/04/29 05:20:35;;;;;;;21.75;16.40;;;11.00;99.90;;;;;;5026218;28;20196;-86
2021/04/29 05:23:03;;;;;;;21.48;17.05;;;11.00;99.90;;;;;;5029679;28;20193;-88
2021/04/29 05:25:29;;;;;;;20.52;15.38;;;11.00;99.90;;;;;;5028275;28;20204;-87
2021/04/29 05:28:00;;;;;;;23.40;16.60;;;11.00;99.90;;;;;;5028382;28;20197;-88
2021/04/29 05:30:27;;;;;;;21.13;16.92;;;11.00;99.90;;;;;;5018095;28;20197;-89
2021/04/29 05:32:53;;;;;;;25.17;18.08;;;11.00;99.90;;;;;;5017824;28;20197;-90
2021/04/29 05:35:20;;;;;;;18.83;15.15;;;11.00;99.90;;;;;;5014587;28;20282;-89
2021/04/29 05:37:47;;;;;;;22.75;17.92;;;11.00;99.90;;;;;;5018163;28;20197;-89
2021/04/29 05:40:14;;;;;;;21.80;17.80;;;10.90;99.90;;;;;;5018058;28;20200;-90
2021/04/29 05:42:41;;;;;;;26.73;18.08;;;10.80;99.90;;;;;;5017275;28;20229;-92
2021/04/29 05:45:11;;;;;;;27.15;17.70;;;10.80;99.90;;;;;;5010669;28;20202;-90
2021/04/29 05:47:39;;;;;;;22.25;17.95;;;10.80;99.90;;;;;;5025469;28;20209;-91
2021/04/29 05:50:07;;;;;;;24.42;17.80;;;10.70;99.90;;;;;;5032813;28;20201;-91
2021/04/29 05:52:34;;;;;;;24.95;16.88;;;10.70;99.90;;;;;;5034662;28;20197;-91
2021/04/29 05:55:00;;;;;;;21.10;17.15;;;10.70;99.90;;;;;;5033155;28;20205;-92
2021/04/29 05:57:35;;;;;;;22.48;17.65;;;10.70;99.90;;;;;;5036784;28;20181;-91
2021/04/29 06:00:01;;;;;;;22.38;17.27;;;10.80;99.90;;;;;;5017455;28;20173;-91
2021/04/29 06:02:29;;;;;;;21.85;19.23;;;10.80;99.90;;;;;;5022344;28;20177;-91
2021/04/29 06:04:55;;;;;;;21.00;16.98;;;10.80;99.90;;;;;;5036098;28;20182;-89
2021/04/29 06:07:21;;;;;;;25.73;18.80;;;10.90;99.90;;;;;;5031978;28;20204;-90
2021/04/29 06:09:48;;;;;;;20.45;17.90;;;10.90;99.90;;;;;;5023283;28;20189;-86
2021/04/29 06:12:14;;;;;;;27.35;20.30;;;11.00;99.90;;;;;;5030388;28;20209;-88
2021/04/29 06:14:41;;;;;;;26.17;18.52;;;11.10;99.90;;;;;;5035075;28;20193;-87
2021/04/29 06:17:07;;;;;;;26.75;20.55;;;11.10;99.90;;;;;;5035093;28;20272;-89
2021/04/29 06:19:35;;;;;;;26.95;21.80;;;11.20;99.90;;;;;;5034483;28;20189;-88
2021/04/29 06:22:01;;;;;;;30.27;21.77;;;11.20;99.90;;;;;;5033373;28;20181;-87
2021/04/29 06:24:27;;;;;;;25.17;20.67;;;11.20;99.90;;;;;;5035975;28;20186;-88
2021/04/29 06:26:54;;;;;;;23.50;19.83;;;11.30;99.90;;;;;;5036421;28;20196;-89
2021/04/29 06:29:20;;;;;;;32.47;22.30;;;11.30;99.90;;;;;;5036009;28;20252;-88
2021/04/29 06:31:46;;;;;;;27.08;20.95;;;11.30;99.90;;;;;;5033376;28;20213;-87
2021/04/29 06:34:13;;;;;;;23.58;20.42;;;11.20;99.90;;;;;;5030337;28;20193;-89
2021/04/29 06:36:41;;;;;;;28.52;22.42;;;11.30;99.90;;;;;;5023286;28;20185;-88
2021/04/29 06:39:07;;;;;;;30.30;21.60;;;11.20;99.90;;;;;;5019426;28;20193;-89
2021/04/29 06:41:34;;;;;;;25.92;21.58;;;11.30;99.90;;;;;;5024369;28;20327;-89
2021/04/29 06:44:00;;;;;;;33.03;22.92;;;11.40;99.90;;;;;;5023832;28;20198;-89
2021/04/29 06:46:26;;;;;;;30.35;21.30;;;11.40;99.90;;;;;;5015700;28;20197;-89
2021/04/29 06:48:53;;;;;;;28.90;24.83;;;11.40;99.90;;;;;;5015957;28;20561;-89
2021/04/29 06:51:19;;;;;;;28.50;23.98;;;11.40;99.90;;;;;;5015587;28;20285;-88
2021/04/29 06:53:46;;;;;;;30.60;21.30;;;11.40;99.90;;;;;;5017313;28;20277;-89
2021/04/29 06:56:13;;;;;;;25.92;22.45;;;11.40;99.90;;;;;;5015889;28;20185;-94
2021/04/29 06:58:39;;;;;;;29.83;22.20;;;11.40;99.90;;;;;;5015954;28;20226;-89
2021/04/29 07:01:05;;;;;;;28.65;20.55;;;11.40;99.90;;;;;;5015704;28;20197;-88
2021/04/29 07:03:31;;;;;;;23.73;19.33;;;11.40;99.90;;;;;;5015777;28;20194;-89
2021/04/29 07:05:58;;;;;;;23.88;20.55;;;11.40;99.90;;;;;;5015067;28;20193;-89
2021/04/29 07:08:25;;;;;;;26.65;20.73;;;11.40;99.90;;;;;;5015500;28;20221;-89
2021/04/29 07:10:53;;;;;;;24.80;18.35;;;11.40;99.90;;;;;;5015416;28;20186;-88
2021/04/29 07:13:19;;;;;;;22.88;18.98;;;11.40;99.90;;;;;;5019848;28;20216;-89
2021/04/29 07:15:45;;;;;;;22.73;19.63;;;11.40;99.90;;;;;;5031594;28;20201;-88
2021/04/29 07:18:14;;;;;;;33.20;20.10;;;11.50;99.90;;;;;;5031151;28;20185;-91
2021/04/29 07:20:41;;;;;;;28.17;20.08;;;11.50;99.90;;;;;;5021707;28;20189;-90
2021/04/29 07:23:07;;;;;;;27.70;20.55;;;11.50;99.90;;;;;;5014407;28;20263;-88
2021/04/29 07:25:34;;;;;;;25.42;20.75;;;11.50;99.90;;;;;;5017952;28;20243;-91
2021/04/29 07:28:02;;;;;;;25.85;20.02;;;11.60;99.90;;;;;;5017123;28;20189;-89
2021/04/29 07:30:28;;;;;;;24.67;19.80;;;11.40;99.90;;;;;;5016772;28;20196;-90
2021/04/29 07:32:55;;;;;;;25.05;21.27;;;11.50;99.90;;;;;;5015806;28;20209;-86
2021/04/29 07:35:22;;;;;;;28.83;21.55;;;11.60;99.90;;;;;;5015353;28;20553;-87
2021/04/29 07:37:49;;;;;;;24.60;20.38;;;11.60;99.90;;;;;;5018303;28;20186;-86
2021/04/29 07:40:16;;;;;;;23.38;19.13;;;11.60;99.90;;;;;;5018509;28;20186;-87
2021/04/29 07:42:42;;;;;;;28.23;20.33;;;11.70;99.90;;;;;;5019833;28;20229;-87
2021/04/29 07:45:11;;;;;;;22.42;19.65;;;11.70;99.90;;;;;;5021496;28;20204;-86
2021/04/29 07:47:37;;;;;;;30.52;22.85;;;11.80;99.90;;;;;;5035846;28;20185;-87
2021/04/29 07:50:06;;;;;;;28.10;21.20;;;11.80;99.90;;;;;;5037653;28;20237;-86
2021/04/29 07:52:34;;;;;;;26.67;20.77;;;11.90;99.90;;;;;;5037874;28;20194;-86
2021/04/29 07:55:00;;;;;;;29.90;22.38;;;12.00;99.90;;;;;;5037436;28;20170;-85
2021/04/29 07:57:27;;;;;;;23.23;20.73;;;12.00;99.90;;;;;;5037900;28;20194;-87
2021/04/29 07:59:53;;;;;;;32.97;22.55;;;12.00;99.90;;;;;;5024375;28;20193;-86
2021/04/29 08:02:20;;;;;;;25.08;20.83;;;12.00;99.90;;;;;;5020351;28;20200;-87
2021/04/29 08:04:47;;;;;;;27.38;21.60;;;12.10;99.90;;;;;;5020019;28;20269;-86
2021/04/29 08:07:13;;;;;;;27.35;21.35;;;12.20;99.90;;;;;;5019476;28;20193;-86
2021/04/29 08:09:39;;;;;;;25.13;22.42;;;12.40;99.90;;;;;;5020925;28;20192;-86
2021/04/29 08:12:06;;;;;;;30.35;21.80;;;12.40;99.90;;;;;;5021275;28;20307;-87
2021/04/29 08:14:32;;;;;;;31.10;24.67;;;12.20;99.90;;;;;;5019735;28;20649;-86
2021/04/29 08:16:58;;;;;;;32.05;25.38;;;12.30;99.90;;;;;;5018965;28;20186;-84
2021/04/29 08:19:26;;;;;;;28.48;20.02;;;12.30;99.90;;;;;;5018503;28;20305;-86
2021/04/29 08:21:52;;;;;;;27.20;23.55;;;12.50;99.90;;;;;;5018788;28;20205;-85
2021/04/29 08:24:18;;;;;;;31.73;26.92;;;12.60;99.90;;;;;;5018512;28;20194;-87
2021/04/29 08:26:45;;;;;;;38.42;28.90;;;12.50;99.90;;;;;;5018509;28;20198;-85
2021/04/29 08:29:11;;;;;;;33.15;27.52;;;12.60;99.90;;;;;;5018621;28;20243;-86
2021/04/29 08:31:38;;;;;;;34.72;28.80;;;12.60;99.90;;;;;;5018514;28;20564;-85
2021/04/29 08:34:05;;;;;;;38.42;31.42;;;12.70;99.90;;;;;;5018514;28;20195;-88
2021/04/29 08:36:33;;;;;;;37.83;33.08;;;12.80;99.90;;;;;;5019052;28;20194;-87
2021/04/29 08:39:00;;;;;;;44.42;35.22;;;12.60;99.90;;;;;;5019782;28;20545;-87
2021/04/29 08:41:27;;;;;;;42.50;32.03;;;12.50;99.90;;;;;;5028527;28;20197;-86
2021/04/29 08:43:54;;;;;;;46.08;33.78;;;12.40;99.90;;;;;;5026028;28;20248;-86
2021/04/29 08:46:20;;;;;;;46.47;36.28;;;12.40;99.90;;;;;;5021394;28;20196;-87
2021/04/29 08:48:52;;;;;;;43.03;32.40;;;12.40;99.90;;;;;;5036480;28;20220;-85
2021/04/29 08:51:19;;;;;;;45.40;37.72;;;12.40;99.90;;;;;;5034618;28;20216;-87
2021/04/29 08:53:48;;;;;;;49.38;34.95;;;12.40;99.90;;;;;;5023286;28;20242;-86
2021/04/29 08:56:15;;;;;;;44.63;36.38;;;12.50;99.90;;;;;;5020521;28;20189;-88
2021/04/29 08:58:41;;;;;;;48.30;37.10;;;12.50;99.90;;;;;;5019987;28;20193;-87
2021/04/29 09:01:09;;;;;;;48.72;35.38;;;12.40;99.90;;;;;;5016258;28;20541;-87
2021/04/29 09:03:35;;;;;;;42.08;34.58;;;12.40;99.90;;;;;;5017424;28;20190;-88
2021/04/29 09:06:04;;;;;;;47.15;33.20;;;12.30;99.90;;;;;;5016773;28;20272;-91
2021/04/29 09:08:32;;;;;;;40.78;33.63;;;12.30;99.90;;;;;;5015050;28;20437;-89
2021/04/29 09:11:12;;;;;;;40.15;30.27;;;12.60;99.90;;;;;;5022959;28;20232;-89
2021/04/29 09:13:39;;;;;;;42.88;32.92;;;12.80;99.90;;;;;;5019471;28;20194;-87
2021/04/29 09:16:09;;;;;;;43.05;35.72;;;12.70;99.90;;;;;;5016043;28;20202;-88
2021/04/29 09:18:36;;;;;;;41.60;32.05;;;12.80;99.90;;;;;;5016231;28;20187;-87
2021/04/29 09:21:07;;;;;;;40.55;31.55;;;13.00;99.90;;;;;;5015468;28;20526;-88
2021/04/29 09:23:35;;;;;;;42.25;33.63;;;13.00;99.90;;;;;;5015546;28;20192;-87
2021/04/29 09:26:04;;;;;;;36.45;29.92;;;12.80;99.90;;;;;;5015930;28;20258;-90
2021/04/29 09:28:39;;;;;;;40.63;31.92;;;12.60;99.90;;;;;;5016100;28;20200;-89
2021/04/29 09:31:07;;;;;;;39.55;29.02;;;12.60;99.90;;;;;;5006458;28;20191;-88
2021/04/29 09:33:35;;;;;;;37.90;30.35;;;12.50;99.90;;;;;;5015474;28;20201;-89
2021/04/29 09:36:02;;;;;;;35.55;28.92;;;12.70;99.90;;;;;;5015357;28;20205;-90
2021/04/29 09:38:33;;;;;;;41.47;28.60;;;12.70;99.90;;;;;;5015912;28;20189;-89
2021/04/29 09:41:01;;;;;;;32.78;28.83;;;12.60;99.90;;;;;;5015222;28;20213;-88
2021/04/29 09:43:27;;;;;;;34.25;25.25;;;12.40;99.90;;;;;;5014903;28;20291;-91
2021/04/29 09:46:02;;;;;;;39.05;26.85;;;12.20;99.90;;;;;;5014838;28;20226;-87
2021/04/29 09:48:36;;;;;;;37.25;28.92;;;12.20;99.90;;;;;;5014654;28;20235;-88
2021/04/29 09:51:03;;;;;;;39.25;27.17;;;12.30;99.90;;;;;;5008615;28;20193;-88
2021/04/29 09:53:40;;;;;;;37.42;26.75;;;12.60;99.90;;;;;;5015971;28;20589;-88
2021/04/29 09:56:11;;;;;;;37.95;24.05;;;13.00;99.90;;;;;;5015694;28;20196;-87
2021/04/29 09:58:46;;;;;;;30.30;23.92;;;13.60;99.90;;;;;;5014924;28;20608;-87
2021/04/29 10:01:14;;;;;;;28.23;22.05;;;13.70;99.90;;;;;;5013194;28;20255;-88
2021/04/29 10:03:42;;;;;;;27.88;22.50;;;13.50;99.90;;;;;;5020671;28;20538;-89
2021/04/29 10:06:14;;;;;;;24.95;22.35;;;13.30;99.90;;;;;;5016143;28;20200;-88
2021/04/29 10:08:41;;;;;;;35.08;24.20;;;13.30;99.90;;;;;;5016274;28;22236;-88
2021/04/29 10:11:10;;;;;;;22.88;18.92;;;13.30;99.90;;;;;;5014936;28;20192;-88
2021/04/29 10:13:43;;;;;;;29.20;21.25;;;13.40;99.90;;;;;;5014686;28;20189;-88
2021/04/29 10:16:09;;;;;;;27.67;23.23;;;13.40;99.90;;;;;;5014915;28;20190;-87
2021/04/29 10:18:39;;;;;;;25.05;20.67;;;13.70;99.90;;;;;;5015041;28;20202;-88
2021/04/29 10:21:06;;;;;;;26.83;21.13;;;13.90;99.90;;;;;;5012236;28;20193;-87
2021/04/29 10:23:33;;;;;;;25.02;20.17;;;13.80;99.90;;;;;;5012946;28;20734;-87
2021/04/29 10:26:00;;;;;;;20.77;18.67;;;13.70;99.90;;;;;;5014204;28;20553;-86
2021/04/29 10:28:41;;;;;;;19.90;17.30;;;13.50;99.90;;;;;;5014002;28;20251;-86
2021/04/29 10:31:19;;;;;;;22.15;18.63;;;13.50;99.90;;;;;;5001059;28;20216;-87
2021/04/29 10:33:51;;;;;;;25.98;20.38;;;13.50;99.90;;;;;;5013492;28;20653;-86
2021/04/29 10:36:19;;;;;;;21.00;17.00;;;13.70;99.90;;;;;;5013542;28;20178;-87
2021/04/29 10:38:45;;;;;;;27.23;19.08;;;14.00;99.90;;;;;;5014366;28;20206;-88
2021/04/29 10:41:20;;;;;;;24.40;19.70;;;14.00;99.90;;;;;;5013572;28;20661;-89
2021/04/29 10:43:47;;;;;;;21.85;16.65;;;13.90;99.90;;;;;;5014054;28;20230;-88
2021/04/29 10:46:29;;;;;;;21.45;17.70;;;13.90;99.90;;;;;;5013932;28;20185;-87
2021/04/29 10:48:58;;;;;;;24.77;17.83;;;13.70;99.90;;;;;;5013774;28;20195;-89
2021/04/29 10:51:31;;;;;;;22.58;19.02;;;13.70;99.90;;;;;;5013978;28;20240;-89
2021/04/29 10:54:08;;;;;;;23.33;17.75;;;14.20;99.90;;;;;;5013731;28;20244;-89
2021/04/29 10:56:35;;;;;;;22.80;18.40;;;14.40;99.90;;;;;;5014151;28;20194;-86
2021/04/29 10:59:12;;;;;;;22.65;17.65;;;14.70;99.90;;;;;;5013765;28;20187;-90
2021/04/29 11:01:43;;;;;;;24.63;17.85;;;15.00;99.90;;;;;;5014217;28;20202;-88
2021/04/29 11:04:19;;;;;;;18.50;16.05;;;15.10;99.90;;;;;;5013018;28;20195;-86
2021/04/29 11:06:46;;;;;;;22.85;19.33;;;14.80;99.90;;;;;;5013962;28;20612;-87
2021/04/29 11:09:17;;;;;;;27.00;21.40;;;14.60;99.90;;;;;;5013709;28;20189;-88
2021/04/29 11:11:44;;;;;;;23.05;19.70;;;14.40;99.90;;;;;;5013948;28;20220;-87
2021/04/29 11:14:12;;;;;;;22.23;17.65;;;14.50;99.90;;;;;;5013824;28;20226;-88
2021/04/29 11:16:50;;;;;;;20.58;17.10;;;14.60;99.90;;;;;;5016651;28;20191;-86
2021/04/29 11:19:38;;;;;;;23.17;16.83;;;14.20;99.90;;;;;;5013698;28;20186;-88
2021/04/29 11:22:06;;;;;;;20.88;18.58;;;13.80;99.90;;;;;;5009961;28;20225;-88
2021/04/29 11:24:34;;;;;;;19.67;17.55;;;13.50;99.90;;;;;;5014379;28;20240;-88
2021/04/29 11:27:01;;;;;;;40.45;19.80;;;13.50;99.90;;;;;;5013825;28;20673;-87
2021/04/29 11:29:36;;;;;;;20.38;16.80;;;13.80;99.90;;;;;;5014249;28;20239;-90
2021/04/29 11:32:03;;;;;;;20.38;17.67;;;13.80;99.90;;;;;;5015305;28;20213;-87
2021/04/29 11:34:40;;;;;;;20.25;16.20;;;13.30;99.90;;;;;;5023723;28;20189;-87
2021/04/29 11:37:06;;;;;;;28.10;15.93;;;12.80;99.90;;;;;;5027692;28;20208;-86
2021/04/29 11:39:32;;;;;;;18.83;15.23;;;12.60;99.90;;;;;;5027036;28;20111;-86
2021/04/29 11:41:59;;;;;;;20.60;16.30;;;12.30;99.90;;;;;;5027992;28;20217;-87
2021/04/29 11:44:27;;;;;;;19.45;15.65;;;12.20;99.90;;;;;;5026937;28;20213;-87
2021/04/29 11:46:53;;;;;;;18.55;15.68;;;12.20;99.90;;;;;;5027221;28;20189;-89
2021/04/29 11:49:19;;;;;;;14.88;13.23;;;12.30;99.90;;;;;;5027153;28;20196;-88
2021/04/29 11:51:50;;;;;;;15.77;14.10;;;12.20;99.90;;;;;;5023118;28;20558;-88
2021/04/29 11:54:17;;;;;;;20.67;16.40;;;12.20;99.90;;;;;;5016781;28;20734;-87
2021/04/29 11:56:45;;;;;;;19.83;16.35;;;11.70;99.90;;;;;;5018124;28;20578;-87
2021/04/29 11:59:12;;;;;;;26.48;17.80;;;11.30;99.90;;;;;;5016711;28;20204;-87
2021/04/29 12:01:41;;;;;;;23.75;19.60;;;10.90;99.90;;;;;;5016691;28;20185;-84
2021/04/29 12:04:15;;;;;;;22.02;19.00;;;10.40;99.90;;;;;;5014223;28;20185;-86
2021/04/29 12:06:52;;;;;;;24.00;21.27;;;10.10;99.90;;;;;;5019481;28;20641;-87
2021/04/29 12:09:19;;;;;;;26.77;23.73;;;10.10;99.90;;;;;;5020145;28;20197;-86
2021/04/29 12:11:47;;;;;;;26.00;22.05;;;10.30;99.90;;;;;;5018944;28;20221;-87
2021/04/29 12:14:14;;;;;;;20.95;18.02;;;10.80;99.90;;;;;;5019192;28;20249;-87
2021/04/29 12:16:40;;;;;;;27.23;20.83;;;12.00;99.90;;;;;;5016204;28;20190;-86
2021/04/29 12:19:07;;;;;;;17.02;13.32;;;12.90;99.90;;;;;;5016381;28;20645;-86
2021/04/29 12:21:34;;;;;;;17.38;14.73;;;13.70;99.90;;;;;;5016975;28;20197;-87
2021/04/29 12:24:03;;;;;;;17.65;15.15;;;13.20;99.90;;;;;;5016539;28;20568;-86
2021/04/29 12:26:32;;;;;;;17.75;15.48;;;12.40;99.90;;;;;;4997460;28;20194;-84
2021/04/29 12:29:03;;;;;;;20.10;15.88;;;11.80;99.90;;;;;;5004534;28;20216;-84
2021/04/29 12:31:30;;;;;;;22.38;16.00;;;11.70;99.90;;;;;;4997083;28;20214;-85
2021/04/29 12:34:02;;;;;;;18.00;13.55;;;11.80;99.90;;;;;;5006001;28;20197;-84
2021/04/29 12:36:30;;;;;;;19.15;14.35;;;11.80;99.90;;;;;;5011465;28;20228;-87